createdAt,value
2019-01-18T00:00:23.949Z,95.64
2019-01-18T00:01:23.972Z,95.43
2019-01-18T00:02:23.892Z,95.50
2019-01-18T00:03:23.883Z,94.70
2019-01-18T00:04:23.870Z,94.92
2019-01-18T00:05:23.863Z,95.70
2019-01-18T00:06:23.879Z,95.60
2019-01-18T00:07:23.832Z,95.91
2019-01-18T00:08:23.829Z,96.01
2019-01-18T00:09:23.812Z,95.50
2019-01-18T00:10:23.799Z,96.12
2019-01-18T00:11:23.802Z,96.26
2019-01-18T00:12:23.810Z,96.26
2019-01-18T00:13:23.766Z,96.22
2019-01-18T00:14:23.759Z,96.22
2019-01-18T00:15:23.774Z,96.43
2019-01-18T00:16:23.735Z,95.81
2019-01-18T00:17:23.734Z,96.37
2019-01-18T00:18:23.770Z,95.95
2019-01-18T00:19:23.743Z,95.91
2019-01-18T00:20:23.702Z,96.33
2019-01-18T00:21:23.707Z,97.72
2019-01-18T00:22:23.694Z,97.37
2019-01-18T00:23:23.722Z,97.31
2019-01-18T00:24:23.710Z,97.78
2019-01-18T00:25:23.658Z,97.16
2019-01-18T00:26:23.629Z,97.31
2019-01-18T00:27:23.627Z,97.72
2019-01-18T00:28:23.616Z,98.46
2019-01-18T00:29:29.475Z,98.66
2019-01-18T00:30:24.622Z,97.62
2019-01-18T00:31:23.589Z,97.94
2019-01-18T00:32:23.564Z,97.41
2019-01-18T00:33:23.558Z,97.62
2019-01-18T00:34:23.549Z,97.25
2019-01-18T00:35:23.532Z,96.94
2019-01-18T00:36:23.552Z,96.62
2019-01-18T00:37:23.524Z,97.35
2019-01-18T00:38:23.502Z,97.67
2019-01-18T00:39:23.496Z,97.56
2019-01-18T00:40:23.487Z,98.50
2019-01-18T00:41:23.472Z,97.77
2019-01-18T00:42:23.486Z,97.46
2019-01-18T00:43:23.441Z,97.67
2019-01-18T00:44:23.472Z,99.13
2019-01-18T00:45:23.442Z,97.77
2019-01-18T00:46:23.402Z,98.19
2019-01-18T00:47:23.401Z,99.33
2019-01-18T00:48:23.414Z,98.08
2019-01-18T00:49:23.369Z,97.67
2019-01-18T00:50:23.368Z,98.29
2019-01-18T00:51:23.355Z,98.39
2019-01-18T00:52:23.339Z,98.08
2019-01-18T00:53:23.339Z,98.19
2019-01-18T00:54:23.365Z,97.88
2019-01-18T00:55:23.309Z,97.46
2019-01-18T00:56:23.297Z,98.29
2019-01-18T00:57:23.296Z,98.60
2019-01-18T00:58:23.279Z,97.35
2019-01-18T00:59:23.278Z,97.25
2019-01-18T01:00:23.296Z,97.56
2019-01-18T01:01:23.247Z,97.77
2019-01-18T01:02:23.242Z,97.77
2019-01-18T01:03:23.226Z,97.88
2019-01-18T01:04:23.246Z,97.67
2019-01-18T01:05:23.217Z,96.31
2019-01-18T01:06:23.195Z,96.42
2019-01-18T01:07:23.188Z,97.46
2019-01-18T01:08:23.181Z,97.25
2019-01-18T01:09:23.158Z,97.04
2019-01-18T01:10:23.178Z,97.41
2019-01-18T01:11:23.135Z,97.25
2019-01-18T01:12:23.135Z,97.56
2019-01-18T01:13:23.113Z,97.46
2019-01-18T01:14:23.104Z,97.41
2019-01-18T01:15:23.120Z,97.67
2019-01-18T01:16:23.080Z,97.56
2019-01-18T01:17:23.084Z,97.25
2019-01-18T01:18:23.059Z,97.77
2019-01-18T01:19:23.050Z,98.92
2019-01-18T01:20:23.041Z,98.50
2019-01-18T01:21:23.048Z,98.50
2019-01-18T01:22:23.017Z,98.19
2019-01-18T01:23:23.024Z,98.44
2019-01-18T01:24:23.010Z,97.81
2019-01-18T01:25:22.986Z,98.34
2019-01-18T01:26:23.004Z,98.34
2019-01-18T01:27:22.964Z,98.96
2019-01-18T01:28:22.954Z,99.17
2019-01-18T01:29:22.958Z,98.23
2019-01-18T01:30:22.926Z,98.96
2019-01-18T01:31:22.917Z,98.18
2019-01-18T01:32:22.961Z,98.38
2019-01-18T01:33:22.904Z,99.01
2019-01-18T01:34:22.895Z,97.44
2019-01-18T01:35:22.888Z,96.71
2019-01-18T01:36:22.871Z,96.44
2019-01-18T01:37:22.864Z,96.92
2019-01-18T01:38:22.867Z,96.76
2019-01-18T01:39:22.835Z,96.44
2019-01-18T01:40:22.836Z,96.86
2019-01-18T01:41:22.818Z,96.44
2019-01-18T01:42:22.805Z,96.86
2019-01-18T01:43:22.845Z,96.38
2019-01-18T01:44:22.787Z,96.38
2019-01-18T01:45:22.778Z,96.80
2019-01-18T01:46:22.774Z,96.38
2019-01-18T01:47:22.757Z,95.55
2019-01-18T01:48:22.783Z,95.28
2019-01-18T01:49:22.757Z,96.38
2019-01-18T01:50:22.723Z,96.11
2019-01-18T01:51:22.706Z,96.22
2019-01-18T01:52:22.699Z,96.22
2019-01-18T01:53:22.680Z,95.07
2019-01-18T01:54:22.671Z,95.74
2019-01-18T01:55:22.689Z,96.58
2019-01-18T01:56:22.652Z,96.89
2019-01-18T01:57:22.644Z,97.94
2019-01-18T01:58:22.636Z,97.52
2019-01-18T01:59:22.621Z,97.52
2019-01-18T02:00:22.608Z,96.47
2019-01-18T02:01:22.657Z,96.78
2019-01-18T02:02:22.594Z,96.47
2019-01-18T02:03:22.581Z,96.37
2019-01-18T02:04:22.580Z,96.16
2019-01-18T02:05:22.549Z,96.05
2019-01-18T02:06:22.537Z,95.74
2019-01-18T02:07:22.563Z,94.49
2019-01-18T02:08:22.522Z,94.90
2019-01-18T02:09:22.518Z,94.70
2019-01-18T02:10:22.502Z,94.90
2019-01-18T02:11:22.501Z,94.90
2019-01-18T02:12:22.480Z,94.70
2019-01-18T02:13:22.486Z,94.80
2019-01-18T02:14:22.466Z,94.49
2019-01-18T02:15:22.470Z,95.26
2019-01-18T02:16:22.433Z,95.37
2019-01-18T02:17:22.432Z,96.05
2019-01-18T02:18:22.434Z,95.78
2019-01-18T02:19:22.412Z,95.05
2019-01-18T02:20:22.413Z,96.20
2019-01-18T02:21:22.385Z,95.89
2019-01-18T02:22:22.370Z,95.78
2019-01-18T02:23:22.389Z,95.99
2019-01-18T02:24:22.352Z,96.25
2019-01-18T02:25:22.344Z,96.94
2019-01-18T02:26:22.330Z,96.77
2019-01-18T02:27:22.304Z,96.83
2019-01-18T02:28:22.334Z,97.35
2019-01-18T02:29:22.290Z,97.56
2019-01-18T02:30:22.286Z,97.88
2019-01-18T02:31:22.275Z,98.61
2019-01-18T02:32:22.259Z,98.39
2019-01-18T02:33:22.268Z,97.98
2019-01-18T02:34:22.265Z,98.08
2019-01-18T02:35:22.222Z,99.65
2019-01-18T02:36:22.206Z,98.50
2019-01-18T02:37:22.200Z,98.29
2019-01-18T02:38:22.195Z,99.65
2019-01-18T02:39:22.183Z,98.50
2019-01-18T02:40:22.213Z,98.19
2019-01-18T02:41:22.169Z,98.92
2019-01-18T02:42:22.153Z,99.24
2019-01-18T02:43:22.176Z,98.82
2019-01-18T02:44:22.138Z,98.19
2019-01-18T02:45:22.172Z,97.77
2019-01-18T02:46:22.104Z,97.67
2019-01-18T02:47:22.154Z,97.67
2019-01-18T02:48:22.084Z,98.02
2019-01-18T02:49:22.092Z,97.77
2019-01-18T02:50:22.084Z,97.71
2019-01-18T02:51:22.056Z,97.81
2019-01-18T02:52:22.044Z,98.02
2019-01-18T02:53:22.048Z,98.02
2019-01-18T02:54:22.045Z,98.13
2019-01-18T02:55:28.739Z,98.24
2019-01-18T02:56:23.002Z,97.61
2019-01-18T02:57:21.993Z,97.50
2019-01-18T02:58:21.971Z,98.24
2019-01-18T02:59:21.966Z,98.75
2019-01-18T03:00:21.961Z,98.75
2019-01-18T03:01:21.985Z,98.65
2019-01-18T03:02:21.955Z,99.70
2019-01-18T03:03:21.925Z,98.97
2019-01-18T03:04:21.921Z,98.65
2019-01-18T03:05:22.018Z,99.11
2019-01-18T03:06:21.885Z,99.07
2019-01-18T03:07:21.881Z,98.86
2019-01-18T03:08:21.872Z,98.65
2019-01-18T03:09:21.860Z,99.22
2019-01-18T03:10:21.855Z,98.97
2019-01-18T03:11:21.865Z,99.74
2019-01-18T03:12:21.825Z,99.74
2019-01-18T03:13:21.834Z,98.97
2019-01-18T03:14:21.813Z,99.74
2019-01-18T03:15:21.811Z,99.11
2019-01-18T03:16:21.836Z,99.22
2019-01-18T03:17:21.777Z,98.97
2019-01-18T03:18:21.766Z,99.01
2019-01-18T03:19:21.753Z,99.22
2019-01-18T03:20:21.739Z,99.18
2019-01-18T03:21:21.734Z,99.22
2019-01-18T03:22:21.749Z,98.86
2019-01-18T03:23:21.711Z,99.54
2019-01-18T03:24:21.710Z,99.43
2019-01-18T03:25:21.691Z,99.99
2019-01-18T03:26:21.675Z,98.97
2019-01-18T03:27:21.662Z,98.91
2019-01-18T03:28:21.679Z,99.99
2019-01-18T03:29:21.646Z,98.07
2019-01-18T03:30:21.775Z,98.07
2019-01-18T03:31:21.623Z,97.86
2019-01-18T03:32:21.606Z,97.23
2019-01-18T03:33:21.686Z,98.07
2019-01-18T03:34:21.595Z,98.22
2019-01-18T03:35:21.581Z,97.91
2019-01-18T03:36:21.577Z,98.07
2019-01-18T03:37:21.602Z,98.28
2019-01-18T03:38:21.548Z,97.59
2019-01-18T03:39:21.556Z,97.75
2019-01-18T03:40:21.520Z,97.34
2019-01-18T03:41:21.511Z,97.34
2019-01-18T03:42:21.501Z,97.96
2019-01-18T03:43:21.534Z,98.02
2019-01-18T03:44:21.473Z,98.07
2019-01-18T03:45:21.469Z,98.18
2019-01-18T03:46:21.463Z,97.23
2019-01-18T03:47:21.460Z,97.55
2019-01-18T03:48:21.455Z,98.28
2019-01-18T03:49:21.464Z,98.28
2019-01-18T03:50:21.412Z,97.81
2019-01-18T03:51:21.400Z,98.02
2019-01-18T03:52:21.388Z,97.61
2019-01-18T03:53:21.376Z,98.02
2019-01-18T03:54:21.405Z,97.55
2019-01-18T03:55:21.381Z,97.29
2019-01-18T03:56:21.356Z,97.39
2019-01-18T03:57:21.368Z,97.50
2019-01-18T03:58:21.336Z,97.29
2019-01-18T03:59:21.346Z,97.08
2019-01-18T04:00:26.410Z,97.19
2019-01-18T04:01:22.307Z,96.88
2019-01-18T04:02:21.286Z,97.08
2019-01-18T04:03:21.269Z,96.77
2019-01-18T04:04:21.285Z,96.98
2019-01-18T04:05:21.293Z,97.19
2019-01-18T04:06:21.249Z,96.77
2019-01-18T04:07:21.245Z,96.77
2019-01-18T04:08:21.252Z,97.19
2019-01-18T04:09:21.218Z,96.31
2019-01-18T04:10:21.199Z,96.83
2019-01-18T04:11:21.210Z,96.14
2019-01-18T04:12:21.174Z,96.10
2019-01-18T04:13:21.162Z,95.78
2019-01-18T04:14:21.171Z,96.41
2019-01-18T04:15:21.152Z,96.10
2019-01-18T04:16:21.157Z,96.25
2019-01-18T04:17:21.150Z,96.56
2019-01-18T04:18:21.163Z,96.20
2019-01-18T04:19:21.116Z,95.68
2019-01-18T04:20:21.098Z,95.83
2019-01-18T04:21:21.093Z,95.15
2019-01-18T04:22:21.077Z,94.74
2019-01-18T04:23:21.059Z,94.84
2019-01-18T04:24:21.075Z,95.26
2019-01-18T04:25:21.068Z,95.26
2019-01-18T04:26:21.039Z,94.95
2019-01-18T04:27:21.030Z,94.74
2019-01-18T04:28:21.035Z,94.84
2019-01-18T04:29:21.005Z,95.15
2019-01-18T04:30:21.021Z,95.20
2019-01-18T04:31:20.978Z,95.68
2019-01-18T04:32:20.971Z,95.41
2019-01-18T04:33:20.969Z,95.47
2019-01-18T04:34:20.939Z,95.68
2019-01-18T04:35:20.939Z,94.78
2019-01-18T04:36:20.951Z,94.95
2019-01-18T04:37:20.914Z,95.37
2019-01-18T04:38:20.911Z,94.74
2019-01-18T04:39:20.899Z,94.95
2019-01-18T04:40:20.891Z,94.74
2019-01-18T04:41:20.888Z,95.93
2019-01-18T04:42:20.855Z,95.78
2019-01-18T04:43:20.840Z,95.47
2019-01-18T04:44:20.918Z,95.47
2019-01-18T04:45:20.831Z,94.74
2019-01-18T04:46:20.844Z,94.64
2019-01-18T04:47:20.815Z,94.01
2019-01-18T04:48:20.791Z,94.42
2019-01-18T04:49:20.776Z,94.57
2019-01-18T04:50:20.779Z,94.89
2019-01-18T04:51:20.788Z,94.95
2019-01-18T04:52:20.750Z,94.74
2019-01-18T04:53:20.753Z,94.95
2019-01-18T04:54:20.725Z,95.26
2019-01-18T04:55:20.707Z,94.84
2019-01-18T04:56:20.723Z,94.95
2019-01-18T04:57:20.712Z,94.42
2019-01-18T04:58:20.694Z,94.95
2019-01-18T04:59:20.686Z,94.84
2019-01-18T05:00:20.668Z,94.78
2019-01-18T05:01:20.661Z,94.46
2019-01-18T05:02:20.666Z,94.89
2019-01-18T05:03:20.645Z,94.99
2019-01-18T05:04:20.632Z,94.42
2019-01-18T05:05:20.617Z,94.84
2019-01-18T05:06:20.594Z,93.90
2019-01-18T05:07:20.582Z,93.21
2019-01-18T05:08:20.624Z,93.11
2019-01-18T05:09:20.570Z,92.96
2019-01-18T05:10:20.562Z,94.15
2019-01-18T05:11:20.553Z,94.46
2019-01-18T05:12:20.544Z,93.95
2019-01-18T05:13:20.552Z,94.05
2019-01-18T05:14:20.520Z,93.52
2019-01-18T05:15:20.502Z,93.48
2019-01-18T05:16:20.497Z,93.59
2019-01-18T05:17:20.488Z,93.70
2019-01-18T05:18:20.520Z,93.63
2019-01-18T05:19:20.464Z,93.01
2019-01-18T05:20:20.451Z,93.11
2019-01-18T05:21:20.436Z,93.52
2019-01-18T05:22:20.438Z,93.01
2019-01-18T05:23:20.427Z,93.01
2019-01-18T05:24:20.451Z,93.01
2019-01-18T05:25:20.402Z,92.48
2019-01-18T05:26:20.453Z,91.75
2019-01-18T05:27:20.376Z,91.85
2019-01-18T05:28:20.371Z,91.43
2019-01-18T05:29:20.372Z,90.59
2019-01-18T05:30:20.368Z,91.58
2019-01-18T05:31:20.343Z,91.64
2019-01-18T05:32:20.330Z,91.47
2019-01-18T05:33:20.318Z,89.70
2019-01-18T05:34:20.322Z,90.11
2019-01-18T05:35:20.283Z,89.38
2019-01-18T05:36:20.321Z,89.76
2019-01-18T05:37:20.278Z,89.34
2019-01-18T05:38:20.270Z,88.65
2019-01-18T05:39:20.241Z,89.86
2019-01-18T05:40:20.238Z,88.29
2019-01-18T05:41:20.222Z,88.29
2019-01-18T05:42:20.265Z,88.29
2019-01-18T05:43:20.210Z,87.92
2019-01-18T05:44:20.233Z,87.77
2019-01-18T05:45:20.199Z,88.29
2019-01-18T05:46:20.176Z,87.88
2019-01-18T05:47:20.157Z,87.98
2019-01-18T05:48:20.154Z,87.56
2019-01-18T05:49:20.146Z,87.88
2019-01-18T05:50:20.173Z,86.31
2019-01-18T05:51:20.124Z,86.10
2019-01-18T05:52:20.105Z,85.99
2019-01-18T05:53:20.095Z,85.61
2019-01-18T05:54:20.119Z,85.47
2019-01-18T05:55:20.103Z,85.16
2019-01-18T05:56:20.083Z,86.35
2019-01-18T05:57:20.062Z,86.24
2019-01-18T05:58:20.064Z,85.99
2019-01-18T05:59:20.062Z,85.41
2019-01-18T06:00:20.021Z,84.78
2019-01-18T06:01:20.009Z,86.35
2019-01-18T06:02:20.011Z,85.82
2019-01-18T06:03:19.995Z,85.89
2019-01-18T06:04:19.996Z,85.51
2019-01-18T06:05:19.995Z,85.51
2019-01-18T06:06:19.950Z,83.94
2019-01-18T06:07:19.942Z,84.05
2019-01-18T06:08:19.935Z,83.94
2019-01-18T06:09:19.928Z,84.15
2019-01-18T06:10:19.931Z,85.72
2019-01-18T06:11:19.891Z,84.88
2019-01-18T06:12:19.903Z,84.15
2019-01-18T06:13:19.881Z,84.36
2019-01-18T06:14:19.889Z,84.67
2019-01-18T06:15:19.869Z,83.42
2019-01-18T06:16:19.884Z,83.94
2019-01-18T06:17:19.846Z,83.42
2019-01-18T06:18:19.829Z,84.46
2019-01-18T06:19:19.815Z,84.05
2019-01-18T06:20:19.805Z,84.56
2019-01-18T06:21:19.825Z,83.83
2019-01-18T06:22:19.801Z,83.52
2019-01-18T06:23:19.783Z,83.31
2019-01-18T06:24:19.766Z,82.79
2019-01-18T06:25:19.773Z,84.88
2019-01-18T06:26:19.756Z,84.25
2019-01-18T06:27:19.766Z,82.79
2019-01-18T06:28:19.737Z,82.79
2019-01-18T06:29:19.716Z,81.95
2019-01-18T06:30:19.708Z,82.68
2019-01-18T06:31:19.686Z,83.42
2019-01-18T06:32:19.707Z,83.10
2019-01-18T06:33:19.669Z,83.66
2019-01-18T06:34:19.717Z,84.56
2019-01-18T06:35:19.657Z,85.19
2019-01-18T06:36:19.661Z,82.79
2019-01-18T06:37:19.673Z,82.89
2019-01-18T06:38:19.629Z,84.92
2019-01-18T06:39:19.609Z,83.87
2019-01-18T06:40:19.599Z,84.50
2019-01-18T06:41:19.597Z,82.82
2019-01-18T06:42:19.595Z,82.72
2019-01-18T06:43:19.566Z,82.62
2019-01-18T06:44:19.545Z,83.03
2019-01-18T06:45:19.543Z,84.81
2019-01-18T06:46:19.546Z,84.61
2019-01-18T06:47:19.557Z,83.45
2019-01-18T06:48:19.517Z,83.35
2019-01-18T06:49:19.508Z,83.66
2019-01-18T06:50:19.493Z,82.72
2019-01-18T06:51:19.479Z,84.08
2019-01-18T06:52:19.458Z,85.02
2019-01-18T06:53:19.475Z,84.39
2019-01-18T06:54:19.468Z,84.50
2019-01-18T06:55:19.437Z,83.98
2019-01-18T06:56:19.437Z,82.82
2019-01-18T06:57:19.407Z,82.93
2019-01-18T06:58:19.412Z,83.25
2019-01-18T06:59:19.434Z,83.03
2019-01-18T07:00:19.413Z,83.35
2019-01-18T07:01:19.383Z,84.61
2019-01-18T07:02:19.362Z,83.45
2019-01-18T07:03:19.382Z,83.25
2019-01-18T07:04:19.331Z,82.72
2019-01-18T07:05:19.346Z,83.07
2019-01-18T07:06:19.318Z,84.22
2019-01-18T07:07:19.322Z,81.99
2019-01-18T07:08:19.297Z,82.82
2019-01-18T07:09:19.310Z,83.49
2019-01-18T07:10:20.990Z,83.28
2019-01-18T07:11:19.265Z,82.86
2019-01-18T07:12:19.257Z,82.65
2019-01-18T07:13:19.259Z,83.81
2019-01-18T07:14:19.259Z,83.28
2019-01-18T07:15:19.243Z,83.81
2019-01-18T07:16:19.203Z,83.28
2019-01-18T07:17:19.193Z,82.97
2019-01-18T07:18:19.206Z,82.03
2019-01-18T07:19:19.188Z,82.76
2019-01-18T07:20:19.204Z,83.42
2019-01-18T07:21:19.172Z,82.90
2019-01-18T07:22:19.142Z,83.11
2019-01-18T07:23:19.128Z,82.59
2019-01-18T07:24:19.128Z,83.42
2019-01-18T07:25:19.106Z,83.01
2019-01-18T07:26:19.140Z,83.95
2019-01-18T07:27:19.094Z,83.53
2019-01-18T07:28:19.077Z,83.74
2019-01-18T07:29:19.065Z,83.81
2019-01-18T07:30:19.069Z,81.85
2019-01-18T07:31:19.082Z,79.54
2019-01-18T07:32:19.055Z,76.89
2019-01-18T07:33:19.032Z,75.98
2019-01-18T07:34:19.016Z,74.28
2019-01-18T07:35:19.009Z,74.15
2019-01-18T07:36:19.001Z,72.83
2019-01-18T07:37:19.017Z,70.61
2019-01-18T07:38:18.986Z,71.20
2019-01-18T07:39:22.491Z,69.50
2019-01-18T07:40:18.967Z,68.22
2019-01-18T07:41:18.945Z,67.91
2019-01-18T07:42:18.927Z,66.00
2019-01-18T07:43:18.938Z,65.66
2019-01-18T07:44:18.914Z,65.53
2019-01-18T07:45:18.923Z,64.77
2019-01-18T07:46:19.431Z,64.56
2019-01-18T07:47:18.868Z,63.73
2019-01-18T07:48:18.891Z,64.02
2019-01-18T07:49:18.858Z,63.29
2019-01-18T07:50:20.195Z,62.95
2019-01-18T07:51:18.839Z,62.23
2019-01-18T07:52:18.833Z,62.82
2019-01-18T07:53:18.813Z,61.41
2019-01-18T07:54:18.829Z,60.27
2019-01-18T07:55:18.788Z,60.58
2019-01-18T07:56:18.772Z,60.27
2019-01-18T07:57:18.766Z,60.84
2019-01-18T07:58:18.764Z,59.88
2019-01-18T07:59:18.751Z,59.36
2019-01-18T08:00:18.757Z,58.84
2019-01-18T08:01:22.241Z,58.61
2019-01-18T08:02:18.711Z,57.04
2019-01-18T08:03:18.715Z,57.86
2019-01-18T08:04:18.693Z,57.34
2019-01-18T08:05:18.689Z,56.93
2019-01-18T08:06:18.693Z,57.11
2019-01-18T08:07:18.657Z,57.06
2019-01-18T08:08:18.644Z,56.05
2019-01-18T08:09:18.633Z,55.00
2019-01-18T08:10:18.632Z,56.62
2019-01-18T08:11:18.644Z,55.33
2019-01-18T08:12:18.613Z,54.79
2019-01-18T08:13:18.603Z,53.22
2019-01-18T08:14:18.578Z,52.09
2019-01-18T08:15:18.575Z,52.37
2019-01-18T08:16:18.581Z,52.78
2019-01-18T08:17:18.570Z,51.73
2019-01-18T08:18:18.538Z,52.06
2019-01-18T08:19:18.530Z,51.16
2019-01-18T08:20:18.521Z,50.85
2019-01-18T08:21:18.521Z,53.22
2019-01-18T08:22:18.505Z,51.06
2019-01-18T08:23:18.499Z,52.69
2019-01-18T08:24:18.504Z,52.27
2019-01-18T08:25:18.472Z,51.34
2019-01-18T08:26:18.484Z,53.09
2019-01-18T08:27:18.435Z,52.81
2019-01-18T08:28:18.428Z,52.27
2019-01-18T08:29:18.410Z,51.86
2019-01-18T08:30:18.418Z,55.02
2019-01-18T08:31:18.401Z,55.18
2019-01-18T08:32:18.423Z,53.14
2019-01-18T08:33:18.375Z,52.78
2019-01-18T08:34:18.377Z,52.12
2019-01-18T08:35:18.359Z,52.61
2019-01-18T08:36:18.347Z,51.12
2019-01-18T08:37:18.335Z,49.85
2019-01-18T08:38:18.337Z,50.44
2019-01-18T08:39:18.325Z,49.39
2019-01-18T08:40:18.299Z,49.77
2019-01-18T08:41:18.280Z,46.39
2019-01-18T08:42:18.287Z,47.83
2019-01-18T08:43:18.268Z,46.68
2019-01-18T08:44:18.299Z,47.63
2019-01-18T08:45:18.244Z,47.52
2019-01-18T08:46:18.274Z,46.83
2019-01-18T08:47:18.216Z,48.39
2019-01-18T08:48:18.229Z,48.82
2019-01-18T08:49:18.202Z,48.49
2019-01-18T08:50:18.211Z,49.97
2019-01-18T08:51:18.172Z,50.28
2019-01-18T08:52:18.156Z,49.17
2019-01-18T08:53:18.164Z,49.77
2019-01-18T08:54:18.147Z,50.79
2019-01-18T08:55:18.173Z,49.87
2019-01-18T08:56:18.162Z,48.74
2019-01-18T08:57:18.120Z,50.38
2019-01-18T08:58:18.094Z,50.26
2019-01-18T08:59:18.092Z,49.00
2019-01-18T09:00:18.079Z,48.90
2019-01-18T09:01:18.061Z,49.82
2019-01-18T09:02:18.083Z,48.24
2019-01-18T09:03:18.672Z,48.63
2019-01-18T09:04:18.045Z,46.53
2019-01-18T09:05:18.029Z,45.74
2019-01-18T09:06:18.012Z,45.78
2019-01-18T09:07:18.039Z,43.29
2019-01-18T09:08:17.993Z,43.57
2019-01-18T09:09:17.990Z,42.82
2019-01-18T09:10:17.964Z,42.29
2019-01-18T09:11:17.947Z,39.51
2019-01-18T09:12:17.965Z,40.99
2019-01-18T09:13:18.475Z,39.73
2019-01-18T09:14:19.560Z,38.07
2019-01-18T09:15:17.928Z,38.05
2019-01-18T09:16:17.905Z,37.22
2019-01-18T09:17:17.958Z,36.47
2019-01-18T09:18:17.874Z,36.05
2019-01-18T09:19:17.870Z,35.43
2019-01-18T09:20:17.865Z,34.52
2019-01-18T09:21:17.850Z,34.52
2019-01-18T09:22:17.846Z,34.20
2019-01-18T09:23:17.826Z,34.40
2019-01-18T09:24:17.806Z,35.63
2019-01-18T09:25:17.793Z,32.98
2019-01-18T09:26:17.801Z,33.89
2019-01-18T09:27:17.807Z,33.37
2019-01-18T09:28:17.777Z,34.38
2019-01-18T09:29:17.764Z,34.97
2019-01-18T09:30:17.757Z,34.05
2019-01-18T09:31:17.726Z,32.53
2019-01-18T09:32:17.745Z,32.88
2019-01-18T09:33:17.704Z,34.50
2019-01-18T09:34:17.706Z,33.37
2019-01-18T09:35:17.697Z,33.98
2019-01-18T09:36:17.674Z,32.48
2019-01-18T09:37:17.688Z,34.47
2019-01-18T09:38:18.117Z,33.36
2019-01-18T09:39:17.676Z,33.24
2019-01-18T09:40:17.647Z,32.45
2019-01-18T09:41:17.632Z,33.36
2019-01-18T09:42:17.615Z,33.15
2019-01-18T09:43:17.613Z,31.94
2019-01-18T09:44:17.634Z,32.76
2019-01-18T09:45:17.593Z,33.10
2019-01-18T09:46:17.567Z,33.30
2019-01-18T09:47:17.551Z,33.83
2019-01-18T09:48:17.553Z,34.23
2019-01-18T09:49:17.544Z,33.22
2019-01-18T09:50:17.599Z,35.04
2019-01-18T09:51:17.559Z,33.61
2019-01-18T09:52:17.505Z,34.92
2019-01-18T09:53:17.525Z,34.42
2019-01-18T09:54:17.485Z,33.80
2019-01-18T09:55:17.490Z,34.09
2019-01-18T09:56:17.467Z,34.50
2019-01-18T09:57:17.524Z,34.89
2019-01-18T09:58:17.435Z,32.58
2019-01-18T09:59:17.439Z,33.39
2019-01-18T10:00:17.428Z,34.09
2019-01-18T10:01:17.411Z,34.38
2019-01-18T10:02:17.416Z,33.17
2019-01-18T10:03:17.389Z,32.75
2019-01-18T10:04:17.384Z,32.36
2019-01-18T10:05:17.370Z,33.97
2019-01-18T10:06:17.348Z,32.85
2019-01-18T10:07:17.357Z,32.67
2019-01-18T10:08:17.331Z,32.67
2019-01-18T10:09:17.323Z,33.59
2019-01-18T10:10:17.299Z,33.07
2019-01-18T10:11:17.289Z,32.07
2019-01-18T10:12:17.294Z,32.78
2019-01-18T10:13:17.262Z,32.39
2019-01-18T10:14:17.263Z,33.30
2019-01-18T10:15:17.260Z,33.22
2019-01-18T10:16:17.245Z,34.99
2019-01-18T10:17:17.250Z,33.69
2019-01-18T10:18:17.223Z,35.61
2019-01-18T10:19:17.197Z,33.91
2019-01-18T10:20:17.190Z,35.94
2019-01-18T10:21:17.173Z,34.92
2019-01-18T10:22:17.196Z,34.44
2019-01-18T10:23:17.163Z,35.49
2019-01-18T10:24:17.139Z,36.73
2019-01-18T10:25:17.127Z,37.82
2019-01-18T10:26:17.130Z,35.73
2019-01-18T10:27:17.115Z,35.70
2019-01-18T10:28:17.140Z,35.24
2019-01-18T10:29:17.091Z,35.13
2019-01-18T10:30:17.069Z,33.89
2019-01-18T10:31:17.094Z,32.68
2019-01-18T10:32:17.045Z,31.65
2019-01-18T10:33:17.046Z,32.35
2019-01-18T10:34:17.072Z,32.24
2019-01-18T10:35:17.032Z,32.55
2019-01-18T10:36:17.032Z,31.82
2019-01-18T10:37:17.006Z,32.33
2019-01-18T10:38:16.988Z,32.03
2019-01-18T10:39:16.980Z,32.32
2019-01-18T10:40:16.986Z,30.62
2019-01-18T10:41:16.970Z,30.71
2019-01-18T10:42:16.967Z,32.21
2019-01-18T10:43:16.964Z,31.29
2019-01-18T10:44:16.946Z,30.58
2019-01-18T10:45:16.931Z,30.36
2019-01-18T10:46:16.903Z,30.16
2019-01-18T10:47:16.893Z,30.16
2019-01-18T10:48:16.882Z,29.68
2019-01-18T10:49:16.895Z,29.37
2019-01-18T10:50:16.879Z,30.60
2019-01-18T10:51:16.847Z,29.80
2019-01-18T10:52:16.838Z,29.30
2019-01-18T10:53:16.824Z,30.21
2019-01-18T10:54:16.820Z,30.11
2019-01-18T10:55:16.842Z,32.53
2019-01-18T10:56:16.784Z,30.60
2019-01-18T10:57:16.783Z,30.09
2019-01-18T10:58:16.775Z,30.48
2019-01-18T10:59:16.774Z,30.58
2019-01-18T11:00:16.766Z,30.27
2019-01-18T11:01:16.758Z,30.36
2019-01-18T11:02:16.720Z,29.24
2019-01-18T11:03:16.718Z,29.26
2019-01-18T11:04:16.698Z,29.64
2019-01-18T11:05:16.692Z,29.75
2019-01-18T11:06:16.717Z,28.55
2019-01-18T11:07:16.676Z,28.59
2019-01-18T11:08:17.473Z,30.80
2019-01-18T11:09:16.655Z,28.48
2019-01-18T11:10:16.641Z,28.16
2019-01-18T11:11:16.642Z,29.78
2019-01-18T11:12:16.663Z,29.27
2019-01-18T11:13:16.612Z,29.27
2019-01-18T11:14:16.590Z,29.37
2019-01-18T11:15:16.605Z,28.97
2019-01-18T11:16:16.577Z,29.66
2019-01-18T11:17:16.563Z,28.77
2019-01-18T11:18:16.597Z,27.66
2019-01-18T11:19:16.544Z,27.67
2019-01-18T11:20:16.528Z,29.32
2019-01-18T11:21:16.531Z,29.43
2019-01-18T11:22:16.498Z,29.32
2019-01-18T11:23:16.499Z,30.36
2019-01-18T11:24:16.514Z,29.14
2019-01-18T11:25:16.475Z,30.04
2019-01-18T11:26:16.467Z,31.26
2019-01-18T11:27:16.462Z,29.54
2019-01-18T11:28:16.430Z,31.49
2019-01-18T11:29:16.420Z,30.82
2019-01-18T11:30:16.447Z,32.26
2019-01-18T11:31:16.411Z,32.71
2019-01-18T11:32:16.400Z,34.73
2019-01-18T11:33:16.388Z,34.80
2019-01-18T11:34:16.368Z,38.56
2019-01-18T11:35:16.418Z,40.05
2019-01-18T11:36:16.352Z,41.53
2019-01-18T11:37:16.341Z,43.75
2019-01-18T11:38:16.334Z,45.95
2019-01-18T11:39:16.355Z,45.89
2019-01-18T11:40:16.315Z,47.69
2019-01-18T11:41:16.316Z,48.76
2019-01-18T11:42:16.278Z,50.76
2019-01-18T11:43:16.275Z,50.89
2019-01-18T11:44:16.275Z,51.95
2019-01-18T11:45:16.287Z,52.70
2019-01-18T11:46:16.258Z,53.42
2019-01-18T11:47:16.225Z,53.36
2019-01-18T11:48:16.226Z,53.47
2019-01-18T11:49:16.215Z,55.02
2019-01-18T11:50:16.221Z,55.66
2019-01-18T11:51:16.209Z,55.05
2019-01-18T11:52:16.181Z,56.00
2019-01-18T11:53:16.166Z,57.56
2019-01-18T11:54:16.158Z,55.38
2019-01-18T11:55:16.138Z,55.62
2019-01-18T11:56:16.147Z,55.98
2019-01-18T11:57:16.132Z,57.30
2019-01-18T11:58:16.118Z,57.95
2019-01-18T11:59:16.108Z,58.05
2019-01-18T12:00:16.076Z,58.70
2019-01-18T12:01:16.100Z,59.42
2019-01-18T12:02:21.937Z,59.32
2019-01-18T12:03:17.055Z,59.45
2019-01-18T12:04:16.058Z,59.27
2019-01-18T12:05:16.031Z,60.21
2019-01-18T12:06:16.041Z,60.62
2019-01-18T12:07:16.010Z,61.35
2019-01-18T12:08:15.987Z,61.45
2019-01-18T12:09:15.984Z,60.24
2019-01-18T12:10:15.973Z,59.30
2019-01-18T12:11:15.969Z,60.13
2019-01-18T12:12:15.968Z,60.55
2019-01-18T12:13:15.952Z,60.75
2019-01-18T12:14:15.954Z,61.71
2019-01-18T12:15:15.905Z,61.19
2019-01-18T12:16:15.899Z,62.02
2019-01-18T12:17:15.894Z,61.82
2019-01-18T12:18:15.887Z,62.55
2019-01-18T12:19:15.875Z,60.91
2019-01-18T12:20:15.883Z,61.19
2019-01-18T12:21:15.840Z,63.09
2019-01-18T12:22:15.843Z,62.99
2019-01-18T12:23:15.828Z,61.85
2019-01-18T12:24:15.820Z,62.05
2019-01-18T12:25:15.821Z,60.63
2019-01-18T12:26:15.804Z,62.19
2019-01-18T12:27:15.776Z,61.98
2019-01-18T12:28:15.766Z,62.19
2019-01-18T12:29:15.757Z,63.43
2019-01-18T12:30:15.770Z,63.26
2019-01-18T12:31:15.757Z,63.15
2019-01-18T12:32:15.721Z,62.43
2019-01-18T12:33:15.720Z,62.01
2019-01-18T12:34:15.722Z,65.96
2019-01-18T12:35:15.707Z,64.29
2019-01-18T12:36:15.704Z,63.98
2019-01-18T12:37:15.676Z,65.31
2019-01-18T12:38:15.667Z,63.05
2019-01-18T12:39:15.652Z,62.22
2019-01-18T12:40:15.631Z,62.43
2019-01-18T12:41:15.657Z,63.05
2019-01-18T12:42:15.625Z,62.63
2019-01-18T12:43:15.613Z,63.15
2019-01-18T12:44:15.599Z,63.57
2019-01-18T12:45:15.590Z,63.88
2019-01-18T12:46:15.576Z,63.78
2019-01-18T12:47:15.598Z,63.46
2019-01-18T12:48:15.561Z,64.51
2019-01-18T12:49:15.547Z,63.88
2019-01-18T12:50:15.530Z,63.67
2019-01-18T12:51:15.516Z,63.57
2019-01-18T12:52:15.508Z,63.88